createdAt,value
2023-05-10T00:02:31.655Z,1.00
2023-05-10T00:07:38.098Z,1.00
2023-05-10T00:12:44.811Z,1.00
2023-05-10T00:17:50.496Z,1.00
2023-05-10T00:22:56.411Z,1.00
2023-05-10T00:28:02.993Z,1.00
2023-05-10T00:33:09.306Z,1.00
2023-05-10T00:38:16.150Z,1.00
2023-05-10T00:43:22.796Z,1.00
2023-05-10T00:48:28.667Z,1.00
2023-05-10T00:53:34.680Z,1.00
2023-05-10T00:58:42.755Z,1.00
2023-05-10T01:03:49.372Z,11.50
2023-05-10T01:08:59.009Z,58.30
2023-05-10T01:14:05.084Z,99.90
2023-05-10T01:19:23.413Z,99.90
2023-05-10T01:24:41.130Z,99.90
2023-05-10T01:30:21.855Z,43.20
2023-05-10T01:35:41.834Z,21.00
2023-05-10T01:41:02.982Z,19.20
2023-05-10T01:46:12.970Z,99.90
2023-05-10T01:51:22.392Z,99.90
2023-05-10T01:56:29.485Z,99.90
2023-05-10T02:01:38.544Z,98.10
2023-05-10T02:06:45.879Z,99.90
2023-05-10T02:11:52.812Z,99.90
2023-05-10T02:16:58.558Z,99.90
2023-05-10T02:22:05.236Z,99.90
2023-05-10T02:27:12.823Z,99.90
2023-05-10T02:32:19.144Z,99.90
2023-05-10T02:37:25.316Z,99.90
2023-05-10T02:42:34.864Z,99.90
2023-05-10T02:47:40.918Z,99.90
2023-05-10T02:52:49.199Z,99.90
2023-05-10T02:58:01.013Z,99.90
2023-05-10T03:03:07.936Z,99.90
2023-05-10T03:08:14.100Z,99.90
2023-05-10T03:13:42.892Z,1.00
2023-05-10T03:18:55.241Z,99.90
2023-05-10T03:24:12.513Z,1.00
2023-05-10T03:29:19.090Z,19.10
2023-05-10T03:34:28.017Z,1.00
2023-05-10T03:39:33.782Z,99.90
2023-05-10T03:44:41.117Z,99.90
2023-05-10T03:49:47.160Z,99.90
2023-05-10T03:54:53.376Z,99.90
2023-05-10T03:59:59.584Z,99.90
2023-05-10T04:05:06.356Z,99.90
2023-05-10T04:10:13.410Z,99.90
2023-05-10T04:15:19.201Z,99.90
2023-05-10T04:20:24.752Z,99.90
2023-05-10T04:25:31.479Z,99.90
2023-05-10T04:30:37.041Z,99.90
2023-05-10T04:35:43.050Z,1.00
2023-05-10T04:40:49.815Z,99.90
2023-05-10T04:45:56.680Z,99.90
2023-05-10T04:51:02.885Z,99.90
2023-05-10T04:56:09.399Z,99.90
2023-05-10T05:01:15.639Z,99.90
2023-05-10T05:06:24.524Z,99.90
2023-05-10T05:11:31.203Z,99.90
2023-05-10T05:16:37.147Z,99.90
2023-05-10T05:21:42.877Z,99.90
2023-05-10T05:26:49.110Z,99.90
2023-05-10T05:31:55.686Z,99.90
2023-05-10T05:37:01.649Z,99.90
2023-05-10T05:42:07.294Z,99.90
2023-05-10T05:47:13.249Z,99.90
2023-05-10T05:52:19.656Z,99.90
2023-05-10T05:57:27.736Z,99.90
2023-05-10T06:02:33.572Z,99.90
2023-05-10T06:07:39.421Z,99.90
2023-05-10T06:12:47.045Z,99.90
2023-05-10T06:17:52.780Z,99.90
2023-05-10T06:22:58.901Z,99.90
2023-05-10T06:28:05.469Z,99.90
2023-05-10T06:33:11.657Z,99.90
2023-05-10T06:38:20.284Z,99.90
2023-05-10T06:43:27.381Z,99.90
2023-05-10T06:48:32.984Z,99.90
2023-05-10T06:53:38.509Z,1.00
2023-05-10T06:58:44.164Z,44.80
2023-05-10T07:03:50.116Z,1.00
2023-05-10T07:08:56.624Z,1.00
2023-05-10T07:14:02.379Z,10.60
2023-05-10T07:19:08.178Z,1.00
2023-05-10T07:24:14.120Z,85.00
2023-05-10T07:29:20.167Z,90.30
2023-05-10T07:34:25.800Z,37.50
2023-05-10T07:39:31.517Z,99.90
2023-05-10T07:44:37.821Z,1.00
2023-05-10T07:49:45.341Z,1.00
2023-05-10T07:54:51.410Z,1.00
2023-05-10T07:59:57.138Z,1.00
2023-05-10T08:05:02.892Z,1.00
2023-05-10T08:10:10.775Z,1.00
2023-05-10T08:15:16.766Z,1.00
2023-05-10T08:20:22.937Z,1.00
2023-05-10T08:25:28.365Z,1.00
2023-05-10T08:30:34.277Z,1.00
2023-05-10T08:35:40.582Z,1.00
2023-05-10T08:40:46.958Z,1.00
2023-05-10T08:45:53.912Z,1.00
2023-05-10T08:51:01.187Z,1.00
2023-05-10T08:56:08.171Z,1.00
2023-05-10T09:01:14.199Z,1.00
2023-05-10T09:06:19.827Z,1.00
2023-05-10T09:11:26.396Z,1.00
2023-05-10T09:16:33.647Z,1.00
2023-05-10T09:21:40.122Z,1.00
2023-05-10T09:26:50.877Z,1.00
2023-05-10T09:31:59.317Z,1.00
2023-05-10T09:37:05.438Z,1.00
2023-05-10T09:42:12.153Z,1.00
2023-05-10T09:47:21.133Z,1.00
2023-05-10T09:52:26.602Z,24.40
2023-05-10T09:57:34.530Z,99.90
2023-05-10T10:02:39.432Z,63.70
2023-05-10T10:07:45.047Z,94.70
2023-05-10T10:12:51.892Z,20.50
2023-05-10T10:17:57.469Z,99.90
2023-05-10T10:23:03.252Z,99.90
2023-05-10T10:28:28.236Z,99.90
2023-05-10T10:33:55.959Z,99.90
2023-05-10T10:39:03.884Z,99.90
2023-05-10T10:44:37.985Z,99.90
2023-05-10T10:49:49.424Z,99.90
2023-05-10T10:54:58.578Z,99.90
2023-05-10T11:00:23.752Z,99.90
2023-05-10T11:05:37.606Z,99.90
2023-05-10T11:10:54.603Z,99.90
2023-05-10T11:16:00.389Z,99.90
2023-05-10T11:21:10.697Z,99.90
2023-05-10T11:26:17.919Z,99.90
2023-05-10T11:31:24.472Z,99.90
2023-05-10T11:36:32.623Z,99.90
2023-05-10T11:41:38.791Z,99.90
2023-05-10T11:46:45.017Z,99.90
2023-05-10T11:51:50.482Z,99.90
2023-05-10T11:56:56.050Z,99.90
2023-05-10T12:02:02.039Z,99.90
2023-05-10T12:07:07.646Z,99.90
2023-05-10T12:12:15.483Z,99.90
2023-05-10T12:17:22.122Z,99.90
2023-05-10T12:22:27.765Z,99.90
2023-05-10T12:27:35.845Z,99.90
2023-05-10T12:32:46.524Z,99.90
2023-05-10T12:37:54.601Z,93.70
2023-05-10T12:43:00.026Z,86.80
2023-05-10T12:48:05.789Z,99.90
2023-05-10T12:53:11.453Z,99.90
2023-05-10T12:58:31.489Z,58.50
2023-05-10T13:03:25.281Z,99.80
2023-05-10T13:08:32.465Z,89.90
2023-05-10T13:13:38.039Z,24.10
2023-05-10T13:18:44.085Z,99.90
2023-05-10T13:23:49.732Z,1.00
2023-05-10T13:28:56.736Z,10.20
2023-05-10T13:34:02.374Z,37.20
2023-05-10T13:39:08.780Z,52.60
2023-05-10T13:44:18.918Z,1.00
2023-05-10T13:49:24.657Z,1.00
2023-05-10T13:54:31.616Z,1.00
2023-05-10T13:59:37.192Z,1.00
2023-05-10T14:04:43.204Z,1.00
2023-05-10T14:09:49.050Z,27.30
2023-05-10T14:14:54.989Z,1.00
2023-05-10T14:20:00.812Z,1.00
2023-05-10T14:25:06.506Z,34.00
2023-05-10T14:30:12.578Z,74.60
2023-05-10T14:35:20.096Z,99.90
2023-05-10T14:40:27.049Z,99.90
2023-05-10T14:45:33.786Z,99.90
2023-05-10T14:50:40.563Z,99.90
2023-05-10T14:55:46.912Z,1.00
2023-05-10T15:00:53.616Z,99.90
2023-05-10T15:06:01.592Z,99.90
2023-05-10T15:11:07.227Z,91.60
2023-05-10T15:16:13.853Z,27.30
2023-05-10T15:21:19.819Z,99.90
2023-05-10T15:26:26.804Z,1.00
2023-05-10T15:31:32.571Z,1.00
2023-05-10T15:36:39.212Z,83.40
2023-05-10T15:41:46.212Z,99.90
2023-05-10T15:46:52.429Z,1.00
2023-05-10T15:51:58.582Z,1.00
2023-05-10T15:57:05.214Z,79.70
2023-05-10T16:02:15.025Z,1.00
2023-05-10T16:07:21.392Z,1.00
2023-05-10T16:12:27.114Z,1.00
2023-05-10T16:17:32.868Z,1.00
2023-05-10T16:22:40.404Z,1.00
2023-05-10T16:27:46.013Z,1.00
2023-05-10T16:32:52.790Z,1.00
2023-05-10T16:37:59.153Z,1.00
2023-05-10T16:43:05.934Z,1.00
2023-05-10T16:48:12.065Z,1.00
2023-05-10T16:53:18.823Z,1.00
2023-05-10T16:58:25.664Z,1.00
2023-05-10T17:03:31.543Z,1.00
2023-05-10T17:08:37.264Z,1.00
2023-05-10T17:13:43.541Z,1.00
2023-05-10T17:18:50.369Z,1.00
2023-05-10T17:23:56.417Z,1.00
2023-05-10T17:29:02.609Z,1.00
2023-05-10T17:34:08.436Z,1.00
2023-05-10T17:39:14.726Z,1.00
2023-05-10T17:44:20.446Z,1.00
2023-05-10T17:49:26.446Z,1.00
2023-05-10T17:54:43.312Z,1.00
2023-05-10T17:59:49.976Z,1.00
2023-05-10T18:04:59.951Z,1.00
2023-05-10T18:10:27.552Z,1.00
2023-05-10T18:20:02.342Z,1.00
2023-05-10T18:25:11.211Z,1.00
2023-05-10T18:30:20.968Z,1.00
2023-05-10T18:35:26.967Z,1.00
2023-05-10T18:40:33.018Z,1.00
2023-05-10T18:45:40.372Z,1.00
2023-05-10T18:50:48.361Z,1.00
2023-05-10T18:55:58.991Z,1.00
2023-05-10T19:01:05.265Z,1.00
2023-05-10T19:06:12.966Z,1.00
2023-05-10T19:11:18.671Z,1.00
2023-05-10T19:16:28.170Z,1.00
2023-05-10T19:21:37.211Z,1.00
2023-05-10T19:26:46.792Z,1.00
2023-05-10T19:31:53.071Z,1.00
2023-05-10T19:37:00.409Z,1.00
2023-05-10T19:42:08.008Z,1.00
2023-05-10T19:47:18.738Z,1.00
2023-05-10T19:52:25.059Z,1.00
2023-05-10T19:57:31.187Z,1.00
2023-05-10T20:02:38.922Z,1.00
2023-05-10T20:07:48.684Z,1.00
2023-05-10T20:12:55.134Z,1.00
2023-05-10T20:18:02.147Z,1.00
2023-05-10T20:23:09.545Z,1.00
2023-05-10T20:28:16.009Z,1.00
2023-05-10T20:33:27.078Z,1.00
2023-05-10T20:38:34.951Z,1.00
2023-05-10T20:43:43.092Z,1.00
2023-05-10T20:48:49.769Z,1.00
2023-05-10T20:53:57.211Z,1.00
2023-05-10T20:59:03.100Z,1.00
2023-05-10T21:04:09.441Z,1.00
2023-05-10T21:09:16.952Z,99.90
2023-05-10T21:14:23.779Z,99.90
2023-05-10T21:19:31.074Z,99.90
2023-05-10T21:24:37.717Z,99.90
2023-05-10T21:29:43.221Z,99.90
2023-05-10T21:35:00.676Z,99.90
2023-05-10T21:40:08.633Z,99.90
2023-05-10T21:45:16.052Z,99.90
2023-05-10T21:50:24.566Z,99.90
2023-05-10T21:55:31.832Z,99.90
2023-05-10T22:00:37.579Z,1.00
2023-05-10T22:05:43.597Z,99.90
2023-05-10T22:10:50.736Z,99.90
2023-05-10T22:15:57.165Z,1.00
2023-05-10T22:21:04.546Z,1.00
2023-05-10T22:26:13.011Z,1.00
2023-05-10T22:31:19.109Z,1.00
2023-05-10T22:36:25.031Z,1.00
2023-05-10T22:41:31.248Z,1.00
2023-05-10T22:46:37.972Z,1.00
2023-05-10T22:51:44.544Z,1.00
2023-05-10T22:56:50.733Z,1.00
2023-05-10T23:01:56.850Z,1.00
2023-05-10T23:07:02.502Z,1.00
2023-05-10T23:12:08.309Z,1.00
2023-05-10T23:17:13.782Z,1.00
2023-05-10T23:22:20.035Z,1.00
2023-05-10T23:27:31.914Z,1.00
2023-05-10T23:32:38.301Z,99.90
2023-05-10T23:37:44.225Z,99.90
2023-05-10T23:42:50.640Z,99.90
2023-05-10T23:47:56.372Z,1.00
2023-05-10T23:53:02.563Z,1.00
2023-05-10T23:58:08.618Z,1.00
